Time,TemperatureF,DewpointF,PressureIn,WindDirection,WindDirectionDegrees,WindSpeedMPH,WindSpeedGustMPH,Humidity,HourlyPrecipIn,Conditions,Clouds,dailyrainin,SoftwareType,DateUTC
2013-10-11 00:08:00,76.4,71.0,30.00,ENE,58,5.0,8.0,83,0.00,,,0.00,weatherlink.com 1.10,2013-10-11 04:08:00,
2013-10-11 00:23:00,76.0,71.0,30.00,ENE,59,6.0,8.0,84,0.00,,,0.00,weatherlink.com 1.10,2013-10-11 04:23:00,
2013-10-11 00:38:00,75.6,71.0,29.99,ENE,59,6.0,8.0,84,0.00,,,0.00,weatherlink.com 1.10,2013-10-11 04:38:00,
2013-10-11 00:53:00,75.2,71.0,29.99,ENE,57,4.0,7.0,85,0.00,,,0.00,weatherlink.com 1.10,2013-10-11 04:53:00,
2013-10-11 01:08:00,74.8,70.0,29.98,ENE,57,6.0,8.0,86,0.00,,,0.00,weatherlink.com 1.10,2013-10-11 05:08:00,
2013-10-11 01:23:00,74.4,70.0,29.98,NE,55,5.0,8.0,86,0.00,,,0.00,weatherlink.com 1.10,2013-10-11 05:23:00,
2013-10-11 01:38:00,74.0,70.0,29.97,NE,55,4.0,6.0,87,0.00,,,0.00,weatherlink.com 1.10,2013-10-11 05:38:00,
2013-10-11 01:53:00,73.7,70.0,29.97,NE,55,5.0,7.0,87,0.00,,,0.00,weatherlink.com 1.10,2013-10-11 05:53:00,
2013-10-11 02:08:00,73.3,70.0,29.97,NE,49,6.0,7.0,88,0.00,,,0.00,weatherlink.com 1.10,2013-10-11 06:08:00,
2013-10-11 02:23:00,73.1,69.0,29.97,NE,50,4.0,6.0,88,0.00,,,0.00,weatherlink.com 1.10,2013-10-11 06:23:00,
2013-10-11 02:38:00,72.8,70.0,29.96,NE,50,5.0,6.0,89,0.00,,,0.00,weatherlink.com 1.10,2013-10-11 06:38:00,
2013-10-11 02:53:00,72.5,69.0,29.96,NE,50,2.0,6.0,89,0.00,,,0.00,weatherlink.com 1.10,2013-10-11 06:53:00,
2013-10-11 03:09:00,72.4,69.0,29.96,NE,51,5.0,6.0,89,0.00,,,0.00,weatherlink.com 1.10,2013-10-11 07:09:00,
2013-10-11 03:23:00,72.2,69.0,29.96,ENE,62,6.0,7.0,90,0.00,,,0.00,weatherlink.com 1.10,2013-10-11 07:23:00,
2013-10-11 03:38:00,72.1,69.0,29.96,ENE,60,5.0,7.0,90,0.00,,,0.00,weatherlink.com 1.10,2013-10-11 07:38:00,
2013-10-11 03:53:00,71.9,69.0,29.96,ENE,60,4.0,7.0,90,0.00,,,0.00,weatherlink.com 1.10,2013-10-11 07:53:00,
2013-10-11 04:08:00,71.7,69.0,29.96,ENE,60,5.0,7.0,90,0.00,,,0.00,weatherlink.com 1.10,2013-10-11 08:08:00,
2013-10-11 04:23:00,71.6,69.0,29.96,ENE,58,5.0,7.0,91,0.00,,,0.00,weatherlink.com 1.10,2013-10-11 08:23:00,
2013-10-11 04:38:00,71.5,69.0,29.96,ENE,58,4.0,6.0,91,0.00,,,0.00,weatherlink.com 1.10,2013-10-11 08:38:00,
2013-10-11 04:53:00,71.4,69.0,29.96,ENE,58,4.0,6.0,92,0.00,,,0.00,weatherlink.com 1.10,2013-10-11 08:53:00,
2013-10-11 05:08:00,71.2,69.0,29.96,ENE,58,4.0,6.0,92,0.00,,,0.00,weatherlink.com 1.10,2013-10-11 09:08:00,
2013-10-11 05:23:00,71.2,69.0,29.96,ENE,58,4.0,7.0,92,0.00,,,0.00,weatherlink.com 1.10,2013-10-11 09:23:00,
2013-10-11 05:38:00,71.1,69.0,29.97,ENE,58,4.0,6.0,92,0.00,,,0.00,weatherlink.com 1.10,2013-10-11 09:38:00,
2013-10-11 05:53:00,71.0,69.0,29.98,ENE,58,2.0,6.0,92,0.00,,,0.00,weatherlink.com 1.10,2013-10-11 09:53:00,
2013-10-11 06:08:00,70.8,68.0,29.98,ENE,58,3.0,5.0,92,0.00,,,0.00,weatherlink.com 1.10,2013-10-11 10:08:00,
2013-10-11 06:23:00,70.6,69.0,29.99,ENE,58,5.0,6.0,93,0.00,,,0.00,weatherlink.com 1.10,2013-10-11 10:23:00,
2013-10-11 06:38:00,70.6,69.0,29.99,NE,56,5.0,6.0,93,0.00,,,0.00,weatherlink.com 1.10,2013-10-11 10:38:00,
2013-10-11 06:53:00,70.6,69.0,30.00,NE,52,5.0,8.0,93,0.00,,,0.00,weatherlink.com 1.10,2013-10-11 10:53:00,
2013-10-11 07:08:00,70.5,68.0,30.00,NE,52,3.0,5.0,93,0.00,,,0.00,weatherlink.com 1.10,2013-10-11 11:08:00,
2013-10-11 07:23:00,70.4,68.0,30.01,NE,52,3.0,5.0,93,0.00,,,0.00,weatherlink.com 1.10,2013-10-11 11:23:00,
2013-10-11 07:38:00,70.2,68.0,30.01,NE,52,3.0,5.0,93,0.00,,,0.00,weatherlink.com 1.10,2013-10-11 11:38:00,
2013-10-11 07:53:00,70.2,69.0,30.01,NE,52,5.0,7.0,94,0.00,,,0.00,weatherlink.com 1.10,2013-10-11 11:53:00,
2013-10-11 08:08:00,70.7,69.0,30.02,NE,49,3.0,8.0,94,0.00,,,0.00,weatherlink.com 1.10,2013-10-11 12:08:00,
2013-10-11 08:23:00,71.3,70.0,30.02,ENE,57,6.0,8.0,94,0.00,,,0.00,weatherlink.com 1.10,2013-10-11 12:23:00,
2013-10-11 08:38:00,71.9,70.0,30.02,NE,47,3.0,8.0,93,0.00,,,0.00,weatherlink.com 1.10,2013-10-11 12:38:00,
2013-10-11 08:53:00,72.5,70.0,30.02,ENE,58,6.0,9.0,93,0.00,,,0.00,weatherlink.com 1.10,2013-10-11 12:53:00,
2013-10-11 09:08:00,73.4,71.0,30.03,NE,54,4.0,8.0,92,0.00,,,0.00,weatherlink.com 1.10,2013-10-11 13:08:00,
2013-10-11 09:23:00,74.6,72.0,30.03,NE,50,5.0,9.0,90,0.00,,,0.00,weatherlink.com 1.10,2013-10-11 13:23:00,
2013-10-11 09:38:00,75.7,72.0,30.03,ENE,66,8.0,9.0,88,0.00,,,0.00,weatherlink.com 1.10,2013-10-11 13:38:00,
2013-10-11 09:54:00,77.2,73.0,30.03,NE,39,9.0,10.0,86,0.00,,,0.00,weatherlink.com 1.10,2013-10-11 13:54:00,
2013-10-11 10:09:00,78.5,73.0,30.03,ENE,65,7.0,11.0,84,0.00,,,0.00,weatherlink.com 1.10,2013-10-11 14:09:00,
2013-10-11 10:24:00,79.7,73.0,30.03,ENE,74,4.0,11.0,81,0.00,,,0.00,weatherlink.com 1.10,2013-10-11 14:24:00,
2013-10-11 10:39:00,81.0,74.0,30.03,ENE,70,5.0,10.0,79,0.00,,,0.00,weatherlink.com 1.10,2013-10-11 14:39:00,
2013-10-11 10:54:00,82.4,74.0,30.03,NE,52,6.0,12.0,75,0.00,,,0.00,weatherlink.com 1.10,2013-10-11 14:54:00,
2013-10-11 11:09:00,83.1,74.0,30.03,NE,55,6.0,11.0,73,0.00,,,0.00,weatherlink.com 1.10,2013-10-11 15:09:00,
2013-10-11 11:24:00,84.0,73.0,30.03,ENE,58,7.0,10.0,69,0.00,,,0.00,weatherlink.com 1.10,2013-10-11 15:24:00,
2013-10-11 11:39:00,85.1,73.0,30.03,NE,55,10.0,10.0,68,0.00,,,0.00,weatherlink.com 1.10,2013-10-11 15:39:00,
2013-10-11 11:54:00,86.2,73.0,30.03,ENE,64,9.0,14.0,65,0.00,,,0.00,weatherlink.com 1.10,2013-10-11 15:54:00,
2013-10-11 12:09:00,87.0,72.0,30.02,NE,43,7.0,12.0,61,0.00,,,0.00,weatherlink.com 1.10,2013-10-11 16:09:00,
2013-10-11 12:24:00,88.0,71.0,30.02,NE,49,5.0,11.0,58,0.00,,,0.00,weatherlink.com 1.10,2013-10-11 16:24:00,
2013-10-11 12:39:00,88.9,72.0,30.01,NE,54,7.0,12.0,57,0.00,,,0.00,weatherlink.com 1.10,2013-10-11 16:39:00,
2013-10-11 12:54:00,89.5,71.0,30.00,ESE,108,2.0,9.0,55,0.00,,,0.00,weatherlink.com 1.10,2013-10-11 16:54:00,
2013-10-11 13:09:00,90.2,72.0,30.00,NE,39,6.0,12.0,56,0.00,,,0.00,weatherlink.com 1.10,2013-10-11 17:09:00,
2013-10-11 13:24:00,90.9,73.0,29.99,NNE,25,6.0,10.0,55,0.00,,,0.00,weatherlink.com 1.10,2013-10-11 17:24:00,
2013-10-11 13:39:00,91.6,72.0,29.98,NE,40,4.0,10.0,52,0.00,,,0.00,weatherlink.com 1.10,2013-10-11 17:39:00,
2013-10-11 13:54:00,92.4,72.0,29.98,NE,54,5.0,10.0,51,0.00,,,0.00,weatherlink.com 1.10,2013-10-11 17:54:00,
2013-10-11 14:09:00,92.4,71.0,29.97,North,2,5.0,13.0,50,0.00,,,0.00,weatherlink.com 1.10,2013-10-11 18:09:00,
2013-10-11 14:24:00,92.8,72.0,29.96,NNE,33,5.0,9.0,50,0.00,,,0.00,weatherlink.com 1.10,2013-10-11 18:24:00,
2013-10-11 14:40:00,93.3,71.0,29.96,North,355,5.0,11.0,48,0.00,,,0.00,weatherlink.com 1.10,2013-10-11 18:40:00,
2013-10-11 14:55:00,93.5,72.0,29.96,NE,36,0.0,7.0,49,0.00,,,0.00,weatherlink.com 1.10,2013-10-11 18:55:00,
2013-10-11 15:10:00,94.2,71.0,29.95,NNE,18,3.0,8.0,47,0.00,,,0.00,weatherlink.com 1.10,2013-10-11 19:10:00,
2013-10-11 15:25:00,94.5,71.0,29.95,NNE,16,6.0,7.0,46,0.00,,,0.00,weatherlink.com 1.10,2013-10-11 19:25:00,
2013-10-11 15:40:00,94.0,70.0,29.95,NNE,27,5.0,7.0,46,0.00,,,0.00,weatherlink.com 1.10,2013-10-11 19:40:00,
2013-10-11 15:55:00,94.2,72.0,29.95,NNE,31,6.0,9.0,48,0.00,,,0.00,weatherlink.com 1.10,2013-10-11 19:55:00,
2013-10-11 16:10:00,92.9,70.0,29.95,WNW,287,3.0,11.0,48,0.00,,,0.00,weatherlink.com 1.10,2013-10-11 20:10:00,
2013-10-11 16:25:00,90.5,69.0,29.95,WNW,297,2.0,9.0,49,0.00,,,0.00,weatherlink.com 1.10,2013-10-11 20:25:00,
2013-10-11 16:40:00,89.9,68.0,29.95,WNW,287,8.0,11.0,48,0.00,,,0.00,weatherlink.com 1.10,2013-10-11 20:40:00,
2013-10-11 16:55:00,90.1,71.0,29.94,NNW,331,5.0,10.0,54,0.00,,,0.00,weatherlink.com 1.10,2013-10-11 20:55:00,
2013-10-11 17:10:00,91.5,71.0,29.94,NNW,332,1.0,4.0,52,0.00,,,0.00,weatherlink.com 1.10,2013-10-11 21:10:00,
2013-10-11 17:25:00,91.4,71.0,29.94,NW,310,1.0,7.0,52,0.00,,,0.00,weatherlink.com 1.10,2013-10-11 21:25:00,
2013-10-11 17:40:00,91.4,71.0,29.94,North,356,2.0,5.0,51,0.00,,,0.00,weatherlink.com 1.10,2013-10-11 21:40:00,
2013-10-11 17:55:00,91.6,70.0,29.94,NW,324,3.0,12.0,50,0.00,,,0.00,weatherlink.com 1.10,2013-10-11 21:55:00,
2013-10-11 18:10:00,90.6,70.0,29.94,NW,311,6.0,6.0,51,0.00,,,0.00,weatherlink.com 1.10,2013-10-11 22:10:00,
2013-10-11 18:25:00,89.1,69.0,29.94,North,2,0.0,8.0,52,0.00,,,0.00,weatherlink.com 1.10,2013-10-11 22:25:00,
2013-10-11 18:40:00,88.8,71.0,29.95,NNW,339,6.0,6.0,55,0.00,,,0.00,weatherlink.com 1.10,2013-10-11 22:40:00,
2013-10-11 18:55:00,88.0,71.0,29.95,North,8,0.0,4.0,57,0.00,,,0.00,weatherlink.com 1.10,2013-10-11 22:55:00,
2013-10-11 19:10:00,86.5,70.0,29.95,North,3,2.0,4.0,59,0.00,,,0.00,weatherlink.com 1.10,2013-10-11 23:10:00,
2013-10-11 19:25:00,84.7,71.0,29.95,North,3,1.0,4.0,63,0.00,,,0.00,weatherlink.com 1.10,2013-10-11 23:25:00,
2013-10-11 19:40:00,83.4,70.0,29.95,North,360,1.0,5.0,65,0.00,,,0.00,weatherlink.com 1.10,2013-10-11 23:40:00,
2013-10-11 19:55:00,82.7,71.0,29.95,North,360,2.0,5.0,67,0.00,,,0.00,weatherlink.com 1.10,2013-10-11 23:55:00,
2013-10-11 20:10:00,82.1,71.0,29.96,North,360,0.0,5.0,68,0.00,,,0.00,weatherlink.com 1.10,2013-10-12 00:10:00,
2013-10-11 20:25:00,81.5,70.0,29.96,North,360,0.0,3.0,69,0.00,,,0.00,weatherlink.com 1.10,2013-10-12 00:25:00,
2013-10-11 20:40:00,80.9,70.0,29.97,North,360,1.0,3.0,69,0.00,,,0.00,weatherlink.com 1.10,2013-10-12 00:40:00,
2013-10-11 20:55:00,80.4,70.0,29.97,North,360,0.0,3.0,70,0.00,,,0.00,weatherlink.com 1.10,2013-10-12 00:55:00,
2013-10-11 21:10:00,79.8,70.0,29.98,North,360,0.0,0.0,71,0.00,,,0.00,weatherlink.com 1.10,2013-10-12 01:10:00,
2013-10-11 21:25:00,79.2,70.0,29.98,North,360,0.0,0.0,73,0.00,,,0.00,weatherlink.com 1.10,2013-10-12 01:25:00,
2013-10-11 21:40:00,78.5,68.0,29.98,North,360,1.0,3.0,71,0.00,,,0.00,weatherlink.com 1.10,2013-10-12 01:40:00,
2013-10-11 21:55:00,77.8,67.0,29.98,North,360,0.0,2.0,69,0.00,,,0.00,weatherlink.com 1.10,2013-10-12 01:55:00,
2013-10-11 22:10:00,77.5,67.0,29.99,North,360,4.0,4.0,70,0.00,,,0.00,weatherlink.com 1.10,2013-10-12 02:10:00,
2013-10-11 22:25:00,77.0,67.0,29.99,North,360,3.0,4.0,70,0.00,,,0.00,weatherlink.com 1.10,2013-10-12 02:25:00,
2013-10-11 22:40:00,76.5,66.0,30.00,North,360,3.0,4.0,71,0.00,,,0.00,weatherlink.com 1.10,2013-10-12 02:40:00,
2013-10-11 22:55:00,76.0,66.0,29.99,North,1,4.0,5.0,72,0.00,,,0.00,weatherlink.com 1.10,2013-10-12 02:55:00,
2013-10-11 23:10:00,75.5,66.0,30.00,NNE,16,3.0,6.0,73,0.00,,,0.00,weatherlink.com 1.10,2013-10-12 03:10:00,
2013-10-11 23:25:00,75.0,66.0,30.00,NNE,16,3.0,5.0,74,0.00,,,0.00,weatherlink.com 1.10,2013-10-12 03:25:00,
2013-10-11 23:40:00,74.7,67.0,30.00,NNE,16,1.0,4.0,76,0.00,,,0.00,weatherlink.com 1.10,2013-10-12 03:40:00,
2013-10-11 23:55:00,74.3,66.0,30.00,NNE,16,2.0,3.0,76,0.00,,,0.00,weatherlink.com 1.10,2013-10-12 03:55:00,